createdAt,value
2018-05-25T00:00:07.283Z,55.20
2018-05-25T00:02:37.999Z,55.10
2018-05-25T00:05:09.242Z,54.40
2018-05-25T00:07:40.193Z,54.40
2018-05-25T00:10:09.978Z,55.90
2018-05-25T00:12:39.959Z,55.70
2018-05-25T00:15:10.537Z,55.80
2018-05-25T00:17:40.241Z,55.10
2018-05-25T00:20:10.033Z,54.60
2018-05-25T00:22:40.032Z,54.80
2018-05-25T00:25:10.928Z,55.70
2018-05-25T00:27:41.366Z,55.10
2018-05-25T00:30:11.143Z,54.40
2018-05-25T00:32:41.007Z,55.40
2018-05-25T00:35:11.140Z,55.60
2018-05-25T00:37:40.928Z,55.80
2018-05-25T00:40:12.117Z,55.70
2018-05-25T00:42:43.758Z,56.30
2018-05-25T00:45:15.672Z,56.90
2018-05-25T00:47:46.708Z,56.90
2018-05-25T00:50:18.772Z,55.80
2018-05-25T00:52:50.068Z,56.50
2018-05-25T00:55:31.622Z,56.50
2018-05-25T00:58:02.462Z,56.40
2018-05-25T01:00:33.283Z,55.30
2018-05-25T01:03:04.381Z,54.00
2018-05-25T01:05:34.887Z,52.20
2018-05-25T01:08:05.180Z,51.00
2018-05-25T01:10:35.336Z,50.30
2018-05-25T01:13:05.525Z,50.40
2018-05-25T01:15:35.752Z,50.70
2018-05-25T01:18:05.978Z,49.70
2018-05-25T01:20:36.379Z,50.00
2018-05-25T01:23:06.612Z,50.20
2018-05-25T01:25:36.684Z,48.60
2018-05-25T01:28:07.272Z,49.20
2018-05-25T01:30:38.422Z,49.40
2018-05-25T01:33:09.036Z,47.80
2018-05-25T01:35:39.994Z,48.30
2018-05-25T01:38:11.278Z,48.60
2018-05-25T01:40:42.183Z,48.10
2018-05-25T01:43:12.905Z,47.20
2018-05-25T01:45:42.961Z,47.40
2018-05-25T01:48:13.037Z,49.40
2018-05-25T01:50:43.109Z,49.30
2018-05-25T01:53:13.489Z,48.70
2018-05-25T01:55:44.430Z,48.90
2018-05-25T01:58:15.618Z,49.40
2018-05-25T02:00:45.822Z,50.50
2018-05-25T02:03:16.540Z,51.00
2018-05-25T02:05:48.348Z,50.20
2018-05-25T02:08:19.988Z,48.70
2018-05-25T02:10:50.311Z,48.70
2018-05-25T02:13:22.333Z,50.20
2018-05-25T02:15:53.221Z,50.00
2018-05-25T02:18:23.856Z,49.90
2018-05-25T02:20:55.948Z,51.80
2018-05-25T02:23:26.142Z,51.90
2018-05-25T02:25:57.263Z,52.60
2018-05-25T02:28:27.657Z,52.60
2018-05-25T02:30:58.235Z,54.50
2018-05-25T02:33:28.856Z,55.30
2018-05-25T02:35:59.380Z,56.00
2018-05-25T02:38:29.891Z,57.30
2018-05-25T02:41:00.675Z,58.70
2018-05-25T02:43:32.359Z,61.70
2018-05-25T02:46:02.824Z,61.80
2018-05-25T02:48:33.160Z,61.90
2018-05-25T02:51:03.668Z,62.70
2018-05-25T02:53:33.996Z,62.90
2018-05-25T02:56:04.300Z,64.30
2018-05-25T02:58:34.533Z,64.70
2018-05-25T03:01:05.156Z,65.70
2018-05-25T03:03:35.954Z,66.70
2018-05-25T03:06:08.608Z,67.50
2018-05-25T03:08:38.830Z,67.50
2018-05-25T03:11:09.466Z,67.50
2018-05-25T03:13:39.777Z,67.80
2018-05-25T03:16:09.921Z,68.80
2018-05-25T03:18:41.168Z,69.30
2018-05-25T03:21:16.463Z,69.40
2018-05-25T03:23:47.830Z,69.40
2018-05-25T03:26:18.052Z,70.50
2018-05-25T03:28:48.316Z,71.30
2018-05-25T03:31:18.527Z,71.00
2018-05-25T03:33:49.564Z,71.40
2018-05-25T03:36:19.976Z,71.40
2018-05-25T03:38:51.303Z,72.70
2018-05-25T03:41:21.754Z,72.70
2018-05-25T03:43:52.813Z,73.90
2018-05-25T03:46:24.243Z,73.00
2018-05-25T03:48:54.558Z,73.00
2018-05-25T03:51:24.815Z,73.20
2018-05-25T03:53:55.826Z,74.10
2018-05-25T03:56:26.308Z,73.60
2018-05-25T03:59:07.461Z,74.10
2018-05-25T04:01:48.817Z,74.80
2018-05-25T04:04:19.546Z,76.10
2018-05-25T04:06:50.830Z,76.20
2018-05-25T04:09:22.071Z,75.30
2018-05-25T04:11:52.898Z,75.30
2018-05-25T04:14:23.685Z,76.20
2018-05-25T04:16:54.457Z,76.00
2018-05-25T04:19:24.691Z,77.00
2018-05-25T04:21:54.732Z,76.90
2018-05-25T04:24:25.983Z,77.50
2018-05-25T04:26:56.260Z,77.40
2018-05-25T04:29:26.488Z,76.80
2018-05-25T04:31:57.544Z,77.90
2018-05-25T04:34:28.078Z,78.00
2018-05-25T04:36:59.492Z,77.60
2018-05-25T04:39:29.954Z,77.60
2018-05-25T04:42:00.044Z,77.60
2018-05-25T04:44:30.221Z,76.90
2018-05-25T04:47:00.698Z,76.60
2018-05-25T04:49:30.903Z,76.60
2018-05-25T04:52:01.421Z,77.90
2018-05-25T04:54:31.626Z,78.40
2018-05-25T04:57:02.546Z,78.10
2018-05-25T04:59:32.698Z,78.10
2018-05-25T05:02:03.170Z,78.20
2018-05-25T05:04:34.023Z,78.50
2018-05-25T05:07:04.320Z,79.20
2018-05-25T05:09:34.670Z,78.70
2018-05-25T05:12:04.801Z,79.00
2018-05-25T05:14:35.121Z,79.10
2018-05-25T05:17:05.360Z,79.60
2018-05-25T05:19:36.500Z,80.80
2018-05-25T05:22:06.739Z,80.80
2018-05-25T05:24:37.913Z,80.70
2018-05-25T05:27:08.449Z,80.70
2018-05-25T05:29:39.435Z,81.00
2018-05-25T05:32:09.653Z,81.30
2018-05-25T05:34:39.961Z,82.00
2018-05-25T05:37:10.490Z,82.20
2018-05-25T05:39:40.643Z,82.50
2018-05-25T05:42:11.875Z,83.30
2018-05-25T05:44:41.996Z,83.30
2018-05-25T05:47:12.660Z,83.70
2018-05-25T05:49:43.254Z,83.80
2018-05-25T05:52:13.297Z,84.10
2018-05-25T05:54:44.434Z,83.70
2018-05-25T05:57:15.445Z,83.60
2018-05-25T05:59:45.472Z,83.50
2018-05-25T06:02:15.548Z,83.70
2018-05-25T06:04:45.822Z,84.00
2018-05-25T06:07:16.003Z,84.40
2018-05-25T06:09:46.385Z,84.30
2018-05-25T06:12:17.603Z,84.30
2018-05-25T06:14:47.862Z,84.30
2018-05-25T06:17:18.012Z,84.30
2018-05-25T06:19:48.683Z,84.50
2018-05-25T06:22:18.997Z,84.50
2018-05-25T06:24:49.217Z,84.90
2018-05-25T06:27:19.561Z,85.00
2018-05-25T06:29:50.465Z,85.40
2018-05-25T06:32:21.392Z,85.30
2018-05-25T06:34:51.725Z,85.10
2018-05-25T06:37:22.108Z,84.90
2018-05-25T06:39:54.729Z,85.00
2018-05-25T06:42:25.399Z,86.50
2018-05-25T06:44:55.904Z,86.10
2018-05-25T06:47:26.469Z,86.40
2018-05-25T06:49:57.714Z,86.80
2018-05-25T06:52:29.249Z,86.70
2018-05-25T06:54:59.692Z,86.70
2018-05-25T06:57:30.847Z,87.00
2018-05-25T07:00:02.073Z,87.40
2018-05-25T07:02:33.173Z,87.50
2018-05-25T07:05:03.669Z,87.40
2018-05-25T07:07:34.832Z,87.70
2018-05-25T07:10:05.353Z,87.70
2018-05-25T07:12:35.703Z,87.70
2018-05-25T07:15:06.363Z,88.00
2018-05-25T07:17:36.865Z,88.30
2018-05-25T07:20:07.219Z,88.50
2018-05-25T07:22:37.527Z,89.10
2018-05-25T07:25:07.664Z,89.60
2018-05-25T07:27:38.208Z,89.80
2018-05-25T07:30:08.338Z,90.10
2018-05-25T07:32:38.903Z,90.00
2018-05-25T07:35:09.252Z,90.00
2018-05-25T07:37:39.946Z,90.00
2018-05-25T07:40:11.327Z,88.90
2018-05-25T07:42:41.705Z,88.90
2018-05-25T07:45:12.015Z,88.70
2018-05-25T07:47:42.406Z,88.40
2018-05-25T07:50:13.039Z,88.30
2018-05-25T07:52:43.341Z,88.40
2018-05-25T08:02:16.057Z,89.30
2018-05-25T08:04:47.227Z,88.80
2018-05-25T08:07:17.342Z,88.70
2018-05-25T08:09:47.671Z,88.40
2018-05-25T08:12:18.070Z,88.10
2018-05-25T08:14:48.851Z,88.20
2018-05-25T08:17:19.647Z,88.20
2018-05-25T08:19:50.645Z,88.70
2018-05-25T08:22:20.890Z,88.70
2018-05-25T08:24:52.052Z,88.60
2018-05-25T08:27:22.921Z,88.90
2018-05-25T08:29:53.515Z,88.90
2018-05-25T08:32:23.791Z,88.70
2018-05-25T08:34:54.017Z,88.90
2018-05-25T08:37:24.346Z,89.40
2018-05-25T08:39:54.689Z,88.70
2018-05-25T08:42:24.750Z,88.60
2018-05-25T08:44:55.132Z,88.20
2018-05-25T08:47:25.831Z,88.40
2018-05-25T08:49:56.130Z,89.00
2018-05-25T08:52:26.280Z,89.70
2018-05-25T08:54:56.281Z,89.60
2018-05-25T08:57:26.399Z,89.40
2018-05-25T08:59:56.766Z,89.10
2018-05-25T09:02:27.159Z,88.70
2018-05-25T09:04:57.275Z,88.80
2018-05-25T09:07:27.392Z,88.40
2018-05-25T09:09:57.818Z,89.20
2018-05-25T09:12:28.229Z,88.70
2018-05-25T09:14:58.693Z,89.40
2018-05-25T09:17:28.996Z,90.10
2018-05-25T09:19:59.247Z,89.70
2018-05-25T09:22:29.411Z,89.80
2018-05-25T09:25:00.615Z,89.40
2018-05-25T09:27:31.021Z,89.40
2018-05-25T09:30:01.357Z,88.80
2018-05-25T09:32:32.085Z,89.30
2018-05-25T09:35:02.215Z,88.20
2018-05-25T09:37:32.667Z,88.70
2018-05-25T09:40:03.696Z,87.80
2018-05-25T09:42:34.128Z,87.70
2018-05-25T09:45:04.235Z,87.30
2018-05-25T09:47:34.649Z,88.00
2018-05-25T09:50:05.178Z,87.80
2018-05-25T09:52:35.587Z,87.70
2018-05-25T09:55:05.900Z,87.40
2018-05-25T09:57:36.437Z,87.10
2018-05-25T10:00:07.183Z,87.20
2018-05-25T10:02:37.418Z,86.80
2018-05-25T10:05:07.949Z,87.40
2018-05-25T10:07:38.052Z,87.60
2018-05-25T10:10:08.594Z,88.20
2018-05-25T10:12:38.907Z,87.60
2018-05-25T10:15:09.311Z,87.70
2018-05-25T10:17:39.776Z,88.20
2018-05-25T10:20:10.318Z,88.10
2018-05-25T10:22:40.921Z,88.80
2018-05-25T10:25:11.047Z,88.30
2018-05-25T10:27:41.386Z,88.90
2018-05-25T10:30:11.619Z,89.10
2018-05-25T10:32:41.831Z,89.50
2018-05-25T10:35:12.054Z,89.80
2018-05-25T10:37:42.482Z,89.80
2018-05-25T10:40:12.785Z,90.00
2018-05-25T10:42:43.052Z,90.20
2018-05-25T10:45:13.758Z,90.40
2018-05-25T10:47:45.129Z,90.30
2018-05-25T10:50:15.455Z,90.30
2018-05-25T10:52:45.831Z,90.80
2018-05-25T10:55:16.659Z,90.90
2018-05-25T10:57:46.722Z,91.00
2018-05-25T11:00:16.737Z,91.00
2018-05-25T11:02:47.070Z,90.70
2018-05-25T11:05:17.077Z,90.70
2018-05-25T11:07:47.487Z,90.90
2018-05-25T11:10:17.955Z,90.90
2018-05-25T11:12:48.258Z,90.90
2018-05-25T11:15:18.648Z,91.00
2018-05-25T11:17:48.686Z,91.10
2018-05-25T11:20:18.910Z,91.00
2018-05-25T11:22:49.335Z,91.10
2018-05-25T11:25:19.468Z,91.10
2018-05-25T11:27:49.891Z,91.20
2018-05-25T11:30:20.192Z,91.30
2018-05-25T11:32:50.330Z,91.30
2018-05-25T11:35:20.663Z,91.80
2018-05-25T11:37:50.766Z,91.50
2018-05-25T11:40:21.097Z,91.70
2018-05-25T11:42:51.540Z,91.30
2018-05-25T11:45:21.886Z,91.30
2018-05-25T11:47:52.260Z,91.50
2018-05-25T11:50:22.488Z,91.50
2018-05-25T11:52:53.009Z,91.50
2018-05-25T11:55:23.526Z,91.20
2018-05-25T11:57:54.412Z,91.70
2018-05-25T12:00:24.613Z,91.70
2018-05-25T12:02:54.934Z,91.80
2018-05-25T12:05:25.102Z,92.40
2018-05-25T12:07:55.282Z,92.10
2018-05-25T12:10:25.530Z,92.00
2018-05-25T12:12:56.561Z,91.90
2018-05-25T12:15:26.596Z,92.20
2018-05-25T12:17:56.908Z,92.10
2018-05-25T12:20:27.238Z,92.40
2018-05-25T12:22:57.373Z,92.20
2018-05-25T12:25:27.418Z,91.80
2018-05-25T12:27:58.239Z,92.20
2018-05-25T12:30:30.098Z,91.90
2018-05-25T12:33:01.621Z,92.00
2018-05-25T12:35:32.869Z,92.00
2018-05-25T12:38:03.799Z,92.00
2018-05-25T12:40:34.258Z,92.00
2018-05-25T12:43:04.442Z,92.10
2018-05-25T12:45:36.393Z,92.20
2018-05-25T12:48:07.704Z,92.20
2018-05-25T12:50:39.293Z,91.60
2018-05-25T12:53:10.501Z,92.10
2018-05-25T12:55:42.256Z,91.40
2018-05-25T12:58:12.822Z,91.40
2018-05-25T13:00:43.128Z,90.90
2018-05-25T13:03:13.922Z,90.60
2018-05-25T13:05:44.020Z,90.60
2018-05-25T13:08:14.062Z,90.20
2018-05-25T13:10:44.268Z,91.90
2018-05-25T13:13:14.819Z,91.90
2018-05-25T13:15:45.099Z,91.70
2018-05-25T13:18:16.139Z,90.40
2018-05-25T13:20:46.388Z,90.40
2018-05-25T13:23:16.781Z,89.30
2018-05-25T13:25:47.228Z,89.10
2018-05-25T13:28:17.250Z,90.20
2018-05-25T13:30:47.621Z,89.80
2018-05-25T13:33:17.991Z,89.00
2018-05-25T13:35:48.022Z,89.30
2018-05-25T13:38:18.610Z,88.40
2018-05-25T13:40:49.702Z,88.70
2018-05-25T13:43:20.053Z,88.70
2018-05-25T13:45:50.150Z,88.10
2018-05-25T13:48:20.208Z,88.00
2018-05-25T13:50:50.281Z,88.70
2018-05-25T13:53:20.522Z,88.70
2018-05-25T13:55:50.724Z,87.60
2018-05-25T13:58:21.085Z,89.40
2018-05-25T14:00:51.776Z,87.70
2018-05-25T14:03:22.609Z,88.10
2018-05-25T14:05:52.744Z,88.30
2018-05-25T14:08:23.810Z,88.20
2018-05-25T14:10:54.225Z,86.90
2018-05-25T14:13:25.088Z,87.30
2018-05-25T14:15:55.415Z,87.30
2018-05-25T14:18:26.135Z,86.50
2018-05-25T14:20:55.996Z,86.50
2018-05-25T14:23:26.191Z,86.20
2018-05-25T14:25:56.977Z,86.70
2018-05-25T14:28:27.272Z,86.70
2018-05-25T14:30:57.620Z,86.30
2018-05-25T14:33:27.800Z,85.80
2018-05-25T14:35:58.830Z,84.60
2018-05-25T14:38:29.047Z,84.50
2018-05-25T14:41:00.324Z,85.10
2018-05-25T14:43:30.499Z,85.10
2018-05-25T14:46:00.729Z,84.00
2018-05-25T14:48:30.863Z,84.20
2018-05-25T14:51:01.183Z,86.30
2018-05-25T14:53:31.176Z,83.50
2018-05-25T14:56:01.399Z,83.60
2018-05-25T14:58:31.720Z,83.40
2018-05-25T15:01:02.073Z,83.20
2018-05-25T15:03:32.366Z,83.20
2018-05-25T15:06:02.608Z,84.00
2018-05-25T15:08:33.004Z,83.90
2018-05-25T15:11:03.136Z,83.60
2018-05-25T15:13:33.438Z,82.90
2018-05-25T15:16:03.605Z,82.70
2018-05-25T15:18:35.083Z,82.30
2018-05-25T15:21:05.449Z,83.70
2018-05-25T15:23:36.172Z,83.30
2018-05-25T15:26:06.551Z,81.90
2018-05-25T15:28:36.927Z,81.50
2018-05-25T15:31:07.761Z,83.00
2018-05-25T15:33:37.812Z,81.00
2018-05-25T15:36:07.855Z,82.40
2018-05-25T15:38:38.227Z,81.90
2018-05-25T15:41:08.578Z,80.80
2018-05-25T15:43:39.451Z,80.80
2018-05-25T15:46:09.519Z,80.20
2018-05-25T15:48:39.268Z,78.80
2018-05-25T15:51:09.270Z,80.30
2018-05-25T15:53:40.076Z,81.00
2018-05-25T15:56:10.462Z,81.30
2018-05-25T15:58:41.573Z,79.00
2018-05-25T16:01:11.957Z,78.90
2018-05-25T16:03:42.001Z,78.90
2018-05-25T16:06:12.725Z,80.00
2018-05-25T16:08:43.117Z,79.10
2018-05-25T16:11:14.421Z,78.10
2018-05-25T16:13:45.637Z,78.50
2018-05-25T16:16:15.893Z,78.50
2018-05-25T16:18:46.196Z,79.00
2018-05-25T16:21:17.228Z,78.30
2018-05-25T16:23:47.399Z,79.80
2018-05-25T16:26:17.763Z,78.70
2018-05-25T16:28:48.165Z,77.80
2018-05-25T16:31:18.887Z,78.40
2018-05-25T16:33:49.253Z,78.50
2018-05-25T16:36:19.705Z,77.40
2018-05-25T16:38:50.260Z,77.90
2018-05-25T16:41:20.663Z,77.20
2018-05-25T16:43:50.973Z,77.30
2018-05-25T16:46:20.924Z,78.10
2018-05-25T16:48:50.661Z,77.00
2018-05-25T16:51:21.240Z,75.00
2018-05-25T16:53:51.770Z,75.30
2018-05-25T16:56:22.162Z,75.50
2018-05-25T16:58:52.427Z,76.30
2018-05-25T17:01:23.436Z,75.60
2018-05-25T17:03:53.896Z,75.60
2018-05-25T17:06:24.300Z,75.40
2018-05-25T17:08:54.532Z,75.00
2018-05-25T17:11:24.743Z,73.50
2018-05-25T17:13:55.408Z,74.10
2018-05-25T17:16:25.699Z,73.20
2018-05-25T17:18:56.034Z,73.50
2018-05-25T17:21:26.169Z,73.80
2018-05-25T17:23:56.405Z,71.80
2018-05-25T17:26:26.664Z,72.00
2018-05-25T17:28:56.685Z,70.50
2018-05-25T17:31:27.681Z,70.40
2018-05-25T17:33:58.102Z,70.40
2018-05-25T17:36:28.231Z,70.50
2018-05-25T17:38:58.462Z,70.00
2018-05-25T17:41:29.283Z,70.10
2018-05-25T17:43:59.806Z,70.70
2018-05-25T17:46:30.978Z,70.50
2018-05-25T17:49:01.689Z,70.70
2018-05-25T17:51:32.063Z,69.30
2018-05-25T17:54:02.389Z,68.50
2018-05-25T17:56:33.513Z,69.50
2018-05-25T17:59:04.288Z,69.50
2018-05-25T18:01:34.745Z,69.40
2018-05-25T18:04:05.152Z,69.30
2018-05-25T18:06:35.696Z,68.00
2018-05-25T18:09:07.168Z,67.50
2018-05-25T18:11:37.308Z,67.90
2018-05-25T18:14:07.611Z,69.50
2018-05-25T18:16:37.920Z,68.30
2018-05-25T18:19:08.658Z,66.90
2018-05-25T18:21:39.397Z,65.00
2018-05-25T18:24:09.861Z,65.80
2018-05-25T18:26:40.773Z,68.20
2018-05-25T18:29:11.754Z,66.10
2018-05-25T18:31:43.052Z,65.60
2018-05-25T18:34:13.867Z,65.70
2018-05-25T18:36:44.002Z,64.00
2018-05-25T18:39:14.156Z,65.50
2018-05-25T18:41:44.861Z,62.90
2018-05-25T18:44:15.377Z,65.10
2018-05-25T18:46:45.709Z,64.30
2018-05-25T18:49:16.458Z,63.30
2018-05-25T18:51:46.982Z,62.90
2018-05-25T18:54:28.498Z,60.40
2018-05-25T18:56:59.906Z,62.20
2018-05-25T18:59:30.751Z,62.00
2018-05-25T19:02:01.510Z,62.90
2018-05-25T19:04:32.371Z,64.10
2018-05-25T19:07:03.285Z,61.20
2018-05-25T19:09:33.998Z,63.00
2018-05-25T19:12:05.079Z,59.40
2018-05-25T19:14:36.298Z,60.00
2018-05-25T19:17:06.687Z,60.00
2018-05-25T19:19:37.425Z,59.20
2018-05-25T19:22:08.211Z,60.00
2018-05-25T19:24:39.085Z,59.40
2018-05-25T19:27:10.565Z,59.90
2018-05-25T19:29:40.827Z,62.00
2018-05-25T19:32:11.418Z,59.80
2018-05-25T19:34:41.938Z,60.00
2018-05-25T19:37:13.294Z,59.60
2018-05-25T19:39:43.822Z,61.10
2018-05-25T19:42:14.057Z,61.50
2018-05-25T19:44:44.195Z,61.20
2018-05-25T19:47:14.373Z,62.10
2018-05-25T19:49:44.515Z,60.30
2018-05-25T19:52:14.817Z,60.50
2018-05-25T19:54:44.969Z,59.20
2018-05-25T19:57:15.252Z,60.50
2018-05-25T19:59:45.447Z,59.60
2018-05-25T20:02:16.442Z,60.20
2018-05-25T20:04:46.618Z,60.20
2018-05-25T20:07:17.500Z,56.80
2018-05-25T20:09:48.635Z,57.70
2018-05-25T20:12:18.644Z,57.70
2018-05-25T20:14:48.865Z,59.10
2018-05-25T20:17:19.209Z,59.80
2018-05-25T20:19:49.260Z,61.30
2018-05-25T20:22:19.264Z,59.30
2018-05-25T20:24:49.526Z,58.60
2018-05-25T20:27:20.486Z,55.40
2018-05-25T20:29:50.744Z,55.40
2018-05-25T20:32:21.174Z,56.40
2018-05-25T20:34:51.182Z,56.40
2018-05-25T20:37:21.419Z,54.60
2018-05-25T20:39:51.732Z,55.00
2018-05-25T20:42:21.737Z,54.60
2018-05-25T20:44:51.968Z,53.90
2018-05-25T20:47:22.152Z,55.30
2018-05-25T20:49:52.299Z,56.00
2018-05-25T20:52:22.768Z,55.00
2018-05-25T20:54:53.243Z,55.20
2018-05-25T20:57:23.383Z,54.70
2018-05-25T20:59:53.596Z,53.90
2018-05-25T21:02:24.222Z,55.90
2018-05-25T21:04:54.670Z,55.00
2018-05-25T21:07:24.889Z,55.70
2018-05-25T21:09:55.115Z,55.90
2018-05-25T21:12:26.342Z,55.40
2018-05-25T21:14:56.577Z,55.40
2018-05-25T21:17:27.091Z,55.20
2018-05-25T21:19:57.131Z,55.10
2018-05-25T21:22:27.284Z,52.80
2018-05-25T21:24:58.304Z,52.50
2018-05-25T21:27:28.524Z,52.50
2018-05-25T21:29:58.965Z,53.70
2018-05-25T21:32:29.812Z,52.50
2018-05-25T21:34:59.995Z,52.50
2018-05-25T21:37:30.417Z,52.90
2018-05-25T21:40:00.716Z,53.40
2018-05-25T21:42:30.922Z,54.80
2018-05-25T21:45:02.147Z,54.50
2018-05-25T21:47:32.661Z,54.50
2018-05-25T21:50:03.137Z,55.50
2018-05-25T21:52:33.413Z,55.80
2018-05-25T21:55:03.496Z,54.20
2018-05-25T21:57:34.057Z,53.60
2018-05-25T22:00:04.208Z,54.70
2018-05-25T22:02:35.216Z,56.40
2018-05-25T22:05:05.706Z,57.00
2018-05-25T22:07:36.140Z,57.90
2018-05-25T22:10:06.344Z,57.00
2018-05-25T22:12:36.801Z,59.50
2018-05-25T22:15:07.266Z,58.30
2018-05-25T22:17:37.859Z,58.70
2018-05-25T22:20:08.016Z,58.70
2018-05-25T22:22:38.674Z,58.80
2018-05-25T22:25:09.983Z,59.40
2018-05-25T22:27:40.376Z,59.40
2018-05-25T22:30:10.835Z,58.60
2018-05-25T22:32:42.186Z,60.00
2018-05-25T22:35:12.405Z,60.10
2018-05-25T22:37:42.590Z,59.40
2018-05-25T22:40:12.937Z,58.60
2018-05-25T22:42:54.226Z,57.80
2018-05-25T22:45:35.617Z,57.70
2018-05-25T22:48:17.341Z,58.10
2018-05-25T22:50:59.542Z,58.00
2018-05-25T22:53:34.529Z,59.30
2018-05-25T22:56:04.581Z,59.20
2018-05-25T22:58:34.893Z,59.30
2018-05-25T23:01:05.158Z,59.60
2018-05-25T23:03:36.155Z,57.60
2018-05-25T23:06:06.162Z,57.60
2018-05-25T23:08:36.312Z,57.30
2018-05-25T23:11:06.447Z,56.90
2018-05-25T23:13:36.443Z,55.80
2018-05-25T23:16:07.168Z,56.80
2018-05-25T23:18:37.894Z,56.40
2018-05-25T23:21:08.228Z,56.70
2018-05-25T23:23:38.217Z,56.50
2018-05-25T23:26:08.453Z,56.40
2018-05-25T23:28:40.231Z,55.90
2018-05-25T23:31:10.418Z,56.60
2018-05-25T23:33:40.668Z,57.70
2018-05-25T23:36:10.775Z,57.10
2018-05-25T23:38:50.955Z,57.60
2018-05-25T23:41:21.935Z,58.20
2018-05-25T23:43:52.830Z,58.00
2018-05-25T23:46:22.886Z,58.10
2018-05-25T23:48:53.702Z,58.30
2018-05-25T23:51:24.020Z,58.30
2018-05-25T23:53:54.027Z,57.80
2018-05-25T23:56:24.449Z,58.60
2018-05-25T23:58:54.598Z,57.20
